AirNav   Everest Fuels
 
 453 users online  

64CL Goodyear Blimp Base Airport
Carson, California, USA

GOING TO CARSON?


FAA INFORMATION EFFECTIVE 16 JULY 2020

Location

FAA Identifier: 64CL
Lat/Long: 33-51-18.0000N 118-16-34.2000W
33-51.300000N 118-16.570000W
33.8550000,-118.2761667
(estimated)
Elevation: 21 ft. / 6 m (estimated)
Variation: 13E (2005)
From city: 1 mile SW of CARSON, CA
Time zone: UTC -7 (UTC -8 during Standard Time)
Zip code: 90746

Airport Operations

Airport use: Private use. Permission required prior to landing
Activation date: 01/1968
Control tower: no
ARTCC: LOS ANGELES CENTER
FSS: HAWTHORNE FLIGHT SERVICE STATION
NOTAMs facility: FDC (NOTAM-D service not available)
Attendance: IREG
Wind indicator: yes
Segmented circle: no

Airport Communications

WX AWOS-3PT at CPM (2.6 nm NE): 127.150 (310-631-4958)
WX ASOS at HHR (5 nm NW): PHONE 310-973-8930
WX ASOS at LGB (7 nm E): PHONE 562-424-0572
WX ASOS at LAX (8 nm NW): PHONE 310-568-1486
WX ASOS at SMO (13 nm NW): PHONE 310-392-6453
WX ASOS at FUL (15 nm E): PHONE 714-870-1372
WX AWOS-3PT at EMT (18 nm NE): 118.75 ((626) 444-1107)

Nearby radio navigation aids

VOR radial/distance  VOR name  Freq  Var
LAXr106/9.1LOS ANGELES VORTAC113.6015E
SLIr276/11.8SEAL BEACH VORTAC115.7015E
SMOr121/12.9SANTA MONICA VOR/DME110.8015E
VNYr139/24.6VAN NUYS VOR/DME113.1015E
POMr226/27.8POMONA VORTAC110.4015E
ELBr278/29.2EL TORO VOR/DME117.2014E
SXCr359/29.7SANTA CATALINA VORTAC111.4015E
PDZr249/37.4PARADISE VORTAC112.2015E

Airport Services

Fuel available: 100
Airframe service: MINOR
Powerplant service: MINOR

Runway Information

Helipad H1

Dimensions: 1200 x 900 ft. / 366 x 274 m
Surface: turf
COMPOSITE HARD SURFACE
Latitude: 33-51.300000N
Longitude: 118-16.570000W
Elevation: 21.0 ft.
Traffic pattern: leftleft

Airport Ownership and Management from official FAA records

Ownership: Privately-owned
Owner: GOODYEAR TR & RBR CO
200 INNOVATION WAY
AKRON, OH 44316-0001
Phone (330) 796-2121
Manager: MICHAEL DOUGHERTY
841 WINGFOOT LAKE RD
MOGADORE, OH 44260
Phone (330) 796-9090
OR CELL: 330-322-2513

Airport Operational Statistics

Aircraft based on the field: 1
Multi engine airplanes: 1
  • BLIMP
    

Additional Remarks

PLINES SW BOUNDARIES.
FOR CD CTC LOS ANGELES ARTCC AT 661-575-2079.

Instrument Procedures

There are no published instrument procedures at 64CL.

Some nearby airports with instrument procedures:

KTOA - Zamperini Field Airport (4 nm SW)
KHHR - Jack Northrop Field/Hawthorne Municipal Airport (5 nm NW)
KLGB - Long Beach Airport (Daugherty Field) (7 nm E)
KLAX - Los Angeles International Airport (8 nm NW)
KSLI - Los Alamitos Army Airfield (12 nm E)
KSMO - Santa Monica Municipal Airport (13 nm NW)
KFUL - Fullerton Municipal Airport (15 nm E)
KEMT - San Gabriel Valley Airport (18 nm NE)
 
Loc | Ops | Rwys | IFR | FBO | Links
Com | Nav | Svcs | Stats | Notes
Area around 64CL (Goodyear Blimp Base Airport)
 
Road maps at: MapQuest Bing Google
 
Aerial photo
WARNING: Photo may not be current or correct
Aerial photo of 64CL (Goodyear Blimp Base Airport)
Taken in September 2006

Do you have a better or more recent aerial photo of Goodyear Blimp Base Airport that you would like to share? If so, please send us your photo.

 
Sectional chart

 
Airport distance calculator
Flying to Goodyear Blimp Base Airport? Find the distance to fly.

From to 64CL

Sunrise and sunset
Times for 09-Aug-2020
 Local
(UTC-7)
 Zulu
(UTC)
Morning civil twilight05:4612:46
Sunrise06:1213:12
Sunset19:4502:45
Evening civil twilight20:1103:11

Current date and time
Zulu (UTC)  10-Aug-2020 06:47:55
Local (UTC-7)  09-Aug-2020 23:47:55
 
METAR
KHHR 
5nm NW 
100553Z AUTO 29004KT 10SM CLR 18/14 A2993 RMK AO2 SLP133 T01780144 10222 20178 50009
KTOA 
5nm SW 
100047Z 27015KT 10SM SKC 21/16 A2989 RMK LAST
KLGB 
7nm E 
100553Z AUTO 31005KT 10SM CLR 18/16 A2992 RMK AO2 SLP132 T01830156 10250 20183 51011
KLAX 
7nm NW 
100553Z 27008KT 10SM BKN008 17/15 A2993 RMK AO2 SLP132 T01720150 10206 20172 50008
KCQT 
12nm N 
100552Z AUTO VRB03KT 7SM CLR 18/14 A2992 RMK AO2 SLP130 T01780144 10239 20178 50010
KSMO 
13nm NW 
100551Z AUTO 23005KT 10SM BKN007 17/15 A2993 RMK AO2 SLP134 T01670150 10206 20167 50009
KSLI 
13nm SE 
092058Z 21007KT 10SM CLR 27/17 A2995 RMK SLP146 WND DATA ESTMD ALSTG/SLP ESTMD 58014 LAST
KFUL 
15nm E 
100553Z AUTO 00000KT 10SM CLR 20/14 A2991 RMK AO2 SLP128 T02000144 10294 20200 50013
KEMT 
18nm NE 
100245Z 21009KT 10SM CLR 24/14 A2988
TAF
KLGB 
7nm E 
100538Z 1006/1106 30006KT P6SM SKC FM100800 VRB03KT P6SM SKC FM102000 18008KT P6SM SKC FM102300 30008KT P6SM SKC
KLAX 
7nm NW 
100538Z 1006/1112 27008KT P6SM SKC FM101200 VRB03KT 6SM BR SCT010 FM101800 27008KT P6SM SKC FM102200 27014KT P6SM SKC FM110300 27008KT P6SM SKC
KSMO 
13nm NW 
100538Z 1006/1106 VRB03KT P6SM SKC FM101300 VRB03KT 5SM HZ SCT012 FM101800 23008KT P6SM SKC FM110500 VRB03KT P6SM SKC
KSLI 
13nm SE 
100500Z 1005/1111 VRB06KT 9999 SKC QNH2986INS TEMPO 1013/1017 27009KT 8000 BR OVC001 BECMG 1107/1108 VRB06KT 9000 BR OVC017 QNH2991INS TX25/1022Z TN15/1014Z
NOTAMs
Click for the latest NOTAMs
NOTAMs are issued by the DoD/FAA and will open in a separate window not controlled by AirNav.

 

 
 

Would you like to see your business listed on this page?

 If your business provides an interesting product or service to pilots, flight crews, aircraft, or users of the Goodyear Blimp Base Airport, you should consider listing it here.  To start the listing process, click on the button below
 
Add a business
 

Other Pages about Goodyear Blimp Base Airport

Update a link
 
Copyright © AirNav, LLC. All rights reserved. Privacy Policy  Contact